sensor_id;sensor_type;location;lat;lon;timestamp;pressure;altitude;pressure_sealevel;temperature;humidity
44441;BME280;30146;52.268;20.944;2023-06-19T00:00:09;100261.20;;;16.47;67.81
44441;BME280;30146;52.268;20.944;2023-06-19T00:02:42;100262.33;;;16.45;67.83
44441;BME280;30146;52.268;20.944;2023-06-19T00:05:12;100260.73;;;16.41;67.78
44441;BME280;30146;52.268;20.944;2023-06-19T00:07:41;100259.95;;;16.39;67.80
44441;BME280;30146;52.268;20.944;2023-06-19T00:10:13;100262.63;;;16.35;67.78
44441;BME280;30146;52.268;20.944;2023-06-19T00:12:43;100262.73;;;16.33;67.80
44441;BME280;30146;52.268;20.944;2023-06-19T00:15:12;100264.56;;;16.30;67.78
44441;BME280;30146;52.268;20.944;2023-06-19T00:17:42;100268.29;;;16.27;67.83
44441;BME280;30146;52.268;20.944;2023-06-19T00:20:11;100268.54;;;16.25;67.76
44441;BME280;30146;52.268;20.944;2023-06-19T00:22:41;100266.06;;;16.21;67.87
44441;BME280;30146;52.268;20.944;2023-06-19T00:25:11;100269.09;;;16.18;67.83
44441;BME280;30146;52.268;20.944;2023-06-19T00:27:41;100272.30;;;16.15;67.93
44441;BME280;30146;52.268;20.944;2023-06-19T00:30:11;100269.84;;;16.11;67.95
44441;BME280;30146;52.268;20.944;2023-06-19T00:32:40;100268.19;;;16.09;68.11
44441;BME280;30146;52.268;20.944;2023-06-19T00:35:15;100270.18;;;16.07;68.10
44441;BME280;30146;52.268;20.944;2023-06-19T00:37:47;100269.58;;;16.04;68.18
44441;BME280;30146;52.268;20.944;2023-06-19T00:40:19;100273.10;;;16.02;68.13
44441;BME280;30146;52.268;20.944;2023-06-19T00:42:49;100274.24;;;15.98;68.17
44441;BME280;30146;52.268;20.944;2023-06-19T00:45:19;100276.79;;;15.94;68.05
44441;BME280;30146;52.268;20.944;2023-06-19T00:47:48;100281.44;;;15.89;67.98
44441;BME280;30146;52.268;20.944;2023-06-19T00:50:18;100282.43;;;15.85;68.11
44441;BME280;30146;52.268;20.944;2023-06-19T00:52:47;100283.05;;;15.82;68.29
44441;BME280;30146;52.268;20.944;2023-06-19T00:55:17;100283.11;;;15.80;68.35
44441;BME280;30146;52.268;20.944;2023-06-19T00:57:46;100281.31;;;15.77;68.39
44441;BME280;30146;52.268;20.944;2023-06-19T01:00:18;100276.73;;;15.75;68.46
44441;BME280;30146;52.268;20.944;2023-06-19T01:02:48;100275.40;;;15.72;68.42
44441;BME280;30146;52.268;20.944;2023-06-19T01:05:18;100273.59;;;15.69;68.49
44441;BME280;30146;52.268;20.944;2023-06-19T01:07:50;100273.83;;;15.67;68.58
44441;BME280;30146;52.268;20.944;2023-06-19T01:10:23;100271.80;;;15.66;68.66
44441;BME280;30146;52.268;20.944;2023-06-19T01:12:55;100279.39;;;15.66;68.81
44441;BME280;30146;52.268;20.944;2023-06-19T01:15:25;100274.32;;;15.63;68.92
44441;BME280;30146;52.268;20.944;2023-06-19T01:17:56;100274.38;;;15.61;68.72
44441;BME280;30146;52.268;20.944;2023-06-19T01:20:27;100271.41;;;15.56;68.52
44441;BME280;30146;52.268;20.944;2023-06-19T01:22:56;100271.70;;;15.53;68.65
44441;BME280;30146;52.268;20.944;2023-06-19T01:25:26;100274.41;;;15.48;68.59
44441;BME280;30146;52.268;20.944;2023-06-19T01:27:55;100267.52;;;15.43;68.59
44441;BME280;30146;52.268;20.944;2023-06-19T01:30:26;100265.26;;;15.38;68.60
44441;BME280;30146;52.268;20.944;2023-06-19T01:32:56;100261.06;;;15.34;68.70
44441;BME280;30146;52.268;20.944;2023-06-19T01:35:28;100259.59;;;15.32;68.91
44441;BME280;30146;52.268;20.944;2023-06-19T01:37:58;100262.90;;;15.30;69.18
44441;BME280;30146;52.268;20.944;2023-06-19T01:40:28;100265.30;;;15.31;69.20
44441;BME280;30146;52.268;20.944;2023-06-19T01:43:00;100268.91;;;15.32;69.37
44441;BME280;30146;52.268;20.944;2023-06-19T01:45:30;100271.83;;;15.32;69.30
44441;BME280;30146;52.268;20.944;2023-06-19T01:48:00;100271.49;;;15.31;69.37
44441;BME280;30146;52.268;20.944;2023-06-19T01:50:30;100272.02;;;15.31;69.43
44441;BME280;30146;52.268;20.944;2023-06-19T01:53:00;100271.20;;;15.30;69.41
44441;BME280;30146;52.268;20.944;2023-06-19T01:55:29;100273.65;;;15.28;69.35
44441;BME280;30146;52.268;20.944;2023-06-19T01:57:59;100274.23;;;15.26;69.40
44441;BME280;30146;52.268;20.944;2023-06-19T02:00:30;100274.46;;;15.24;69.26
44441;BME280;30146;52.268;20.944;2023-06-19T02:03:03;100269.73;;;15.21;69.17
44441;BME280;30146;52.268;20.944;2023-06-19T02:05:33;100268.96;;;15.18;69.22
44441;BME280;30146;52.268;20.944;2023-06-19T02:08:07;100267.34;;;15.14;69.24
44441;BME280;30146;52.268;20.944;2023-06-19T02:10:37;100268.09;;;15.12;69.35
44441;BME280;30146;52.268;20.944;2023-06-19T02:13:07;100268.51;;;15.10;69.49
44441;BME280;30146;52.268;20.944;2023-06-19T02:15:36;100272.36;;;15.08;69.45
44441;BME280;30146;52.268;20.944;2023-06-19T02:18:06;100272.05;;;15.07;69.50
44441;BME280;30146;52.268;20.944;2023-06-19T02:20:36;100269.05;;;15.03;69.51
44441;BME280;30146;52.268;20.944;2023-06-19T02:23:05;100270.35;;;15.00;69.42
44441;BME280;30146;52.268;20.944;2023-06-19T02:25:35;100275.75;;;14.98;69.57
44441;BME280;30146;52.268;20.944;2023-06-19T02:28:05;100279.69;;;14.98;69.90
44441;BME280;30146;52.268;20.944;2023-06-19T02:30:36;100283.64;;;14.98;69.88
44441;BME280;30146;52.268;20.944;2023-06-19T02:33:05;100288.67;;;14.98;69.75
44441;BME280;30146;52.268;20.944;2023-06-19T02:35:35;100287.14;;;14.96;69.84
44441;BME280;30146;52.268;20.944;2023-06-19T02:38:04;100284.05;;;14.96;70.00
44441;BME280;30146;52.268;20.944;2023-06-19T02:40:33;100279.73;;;14.96;70.14
44441;BME280;30146;52.268;20.944;2023-06-19T02:43:03;100278.70;;;14.96;70.18
44441;BME280;30146;52.268;20.944;2023-06-19T02:45:32;100280.73;;;14.98;70.30
44441;BME280;30146;52.268;20.944;2023-06-19T02:48:03;100275.91;;;14.98;70.14
44441;BME280;30146;52.268;20.944;2023-06-19T02:50:33;100276.09;;;14.97;70.03
44441;BME280;30146;52.268;20.944;2023-06-19T02:53:02;100270.22;;;14.98;70.25
44441;BME280;30146;52.268;20.944;2023-06-19T02:55:32;100272.09;;;14.99;70.31
44441;BME280;30146;52.268;20.944;2023-06-19T02:58:01;100269.66;;;14.99;70.38
44441;BME280;30146;52.268;20.944;2023-06-19T03:00:31;100271.19;;;15.01;70.31
44441;BME280;30146;52.268;20.944;2023-06-19T03:03:01;100272.02;;;15.01;70.26
44441;BME280;30146;52.268;20.944;2023-06-19T03:05:32;100278.54;;;15.02;70.43
44441;BME280;30146;52.268;20.944;2023-06-19T03:08:02;100283.63;;;15.05;70.60
44441;BME280;30146;52.268;20.944;2023-06-19T03:10:31;100283.38;;;15.07;70.54
44441;BME280;30146;52.268;20.944;2023-06-19T03:13:01;100280.44;;;15.08;70.52
44441;BME280;30146;52.268;20.944;2023-06-19T03:15:30;100284.91;;;15.08;70.33
44441;BME280;30146;52.268;20.944;2023-06-19T03:18:00;100287.77;;;15.11;70.66
44441;BME280;30146;52.268;20.944;2023-06-19T03:20:33;100289.56;;;15.14;70.71
44441;BME280;30146;52.268;20.944;2023-06-19T03:23:02;100288.60;;;15.17;70.61
44441;BME280;30146;52.268;20.944;2023-06-19T03:25:32;100292.42;;;15.22;70.67
44441;BME280;30146;52.268;20.944;2023-06-19T03:28:04;100293.46;;;15.28;70.79
44441;BME280;30146;52.268;20.944;2023-06-19T03:30:34;100292.08;;;15.34;70.69
44441;BME280;30146;52.268;20.944;2023-06-19T03:33:03;100292.32;;;15.37;70.58
44441;BME280;30146;52.268;20.944;2023-06-19T03:35:40;100294.36;;;15.44;70.58
44441;BME280;30146;52.268;20.944;2023-06-19T03:38:15;100293.41;;;15.52;70.65
44441;BME280;30146;52.268;20.944;2023-06-19T03:40:45;100294.15;;;15.62;70.65
44441;BME280;30146;52.268;20.944;2023-06-19T03:43:15;100296.09;;;15.72;70.75
44441;BME280;30146;52.268;20.944;2023-06-19T03:45:44;100297.79;;;15.85;70.71
44441;BME280;30146;52.268;20.944;2023-06-19T03:48:14;100293.80;;;15.96;70.67
44441;BME280;30146;52.268;20.944;2023-06-19T03:50:44;100296.61;;;16.05;70.66
44441;BME280;30146;52.268;20.944;2023-06-19T03:53:14;100299.02;;;16.16;70.52
44441;BME280;30146;52.268;20.944;2023-06-19T03:55:43;100299.83;;;16.27;70.38
44441;BME280;30146;52.268;20.944;2023-06-19T03:58:14;100300.30;;;16.34;70.27
44441;BME280;30146;52.268;20.944;2023-06-19T04:00:43;100299.59;;;16.39;70.18
44441;BME280;30146;52.268;20.944;2023-06-19T04:03:15;100297.33;;;16.45;70.11
44441;BME280;30146;52.268;20.944;2023-06-19T04:05:46;100292.89;;;16.49;70.01
44441;BME280;30146;52.268;20.944;2023-06-19T04:08:15;100290.02;;;16.51;69.91
44441;BME280;30146;52.268;20.944;2023-06-19T04:10:45;100288.17;;;16.55;69.77
44441;BME280;30146;52.268;20.944;2023-06-19T04:13:15;100284.23;;;16.59;69.72
44441;BME280;30146;52.268;20.944;2023-06-19T04:15:45;100287.14;;;16.65;69.75
44441;BME280;30146;52.268;20.944;2023-06-19T04:18:21;100290.34;;;16.77;69.89
44441;BME280;30146;52.268;20.944;2023-06-19T04:20:52;100293.63;;;16.92;70.04
44441;BME280;30146;52.268;20.944;2023-06-19T04:23:22;100293.10;;;17.06;69.93
44441;BME280;30146;52.268;20.944;2023-06-19T04:25:52;100290.90;;;17.24;69.89
44441;BME280;30146;52.268;20.944;2023-06-19T04:28:21;100298.39;;;17.36;69.68
44441;BME280;30146;52.268;20.944;2023-06-19T04:30:51;100293.80;;;17.51;69.65
44441;BME280;30146;52.268;20.944;2023-06-19T04:33:28;100293.37;;;17.76;69.40
44441;BME280;30146;52.268;20.944;2023-06-19T04:36:01;100292.27;;;18.21;69.72
44441;BME280;30146;52.268;20.944;2023-06-19T04:38:32;100293.54;;;18.73;69.75
44441;BME280;30146;52.268;20.944;2023-06-19T04:41:02;100291.80;;;19.30;69.66
44441;BME280;30146;52.268;20.944;2023-06-19T04:43:32;100293.54;;;19.89;69.12
44441;BME280;30146;52.268;20.944;2023-06-19T04:46:02;100286.30;;;20.47;68.29
44441;BME280;30146;52.268;20.944;2023-06-19T04:48:32;100286.18;;;21.09;67.95
44441;BME280;30146;52.268;20.944;2023-06-19T04:51:04;100287.74;;;21.79;67.66
44441;BME280;30146;52.268;20.944;2023-06-19T04:53:34;100290.48;;;22.46;66.76
44441;BME280;30146;52.268;20.944;2023-06-19T04:56:05;100287.39;;;23.11;65.75
44441;BME280;30146;52.268;20.944;2023-06-19T04:58:36;100291.66;;;23.79;64.83
44441;BME280;30146;52.268;20.944;2023-06-19T05:01:12;100288.80;;;24.51;64.25
44441;BME280;30146;52.268;20.944;2023-06-19T05:03:44;100285.62;;;25.19;62.47
44441;BME280;30146;52.268;20.944;2023-06-19T05:06:14;100285.60;;;25.78;60.84
44441;BME280;30146;52.268;20.944;2023-06-19T05:08:44;100286.83;;;26.41;60.27
44441;BME280;30146;52.268;20.944;2023-06-19T05:11:13;100284.69;;;26.96;58.40
44441;BME280;30146;52.268;20.944;2023-06-19T05:13:44;100283.35;;;27.50;57.42
44441;BME280;30146;52.268;20.944;2023-06-19T05:16:13;100288.12;;;28.07;56.52
44441;BME280;30146;52.268;20.944;2023-06-19T05:18:44;100288.84;;;28.65;55.49
44441;BME280;30146;52.268;20.944;2023-06-19T05:21:14;100287.85;;;29.19;54.33
44441;BME280;30146;52.268;20.944;2023-06-19T05:23:43;100288.13;;;29.66;53.47
44441;BME280;30146;52.268;20.944;2023-06-19T05:26:15;100293.84;;;30.17;52.28
44441;BME280;30146;52.268;20.944;2023-06-19T05:28:45;100295.96;;;30.61;51.38
44441;BME280;30146;52.268;20.944;2023-06-19T05:31:14;100302.92;;;31.10;50.54
44441;BME280;30146;52.268;20.944;2023-06-19T05:33:44;100304.51;;;31.57;49.57
44441;BME280;30146;52.268;20.944;2023-06-19T05:36:13;100308.87;;;31.97;47.97
44441;BME280;30146;52.268;20.944;2023-06-19T05:38:43;100314.54;;;32.29;46.99
44441;BME280;30146;52.268;20.944;2023-06-19T05:41:13;100319.44;;;32.55;45.88
44441;BME280;30146;52.268;20.944;2023-06-19T05:43:44;100317.77;;;32.84;45.31
44441;BME280;30146;52.268;20.944;2023-06-19T05:46:14;100314.08;;;33.21;45.27
44441;BME280;30146;52.268;20.944;2023-06-19T05:48:43;100317.84;;;33.69;45.08
44441;BME280;30146;52.268;20.944;2023-06-19T05:51:13;100323.27;;;34.13;43.93
44441;BME280;30146;52.268;20.944;2023-06-19T05:53:43;100326.55;;;34.54;43.55
44441;BME280;30146;52.268;20.944;2023-06-19T05:56:14;100326.53;;;34.97;43.07
44441;BME280;30146;52.268;20.944;2023-06-19T05:58:43;100329.91;;;35.42;42.78
44441;BME280;30146;52.268;20.944;2023-06-19T06:01:14;100332.34;;;35.86;41.96
44441;BME280;30146;52.268;20.944;2023-06-19T06:03:46;100336.79;;;36.20;40.81
44441;BME280;30146;52.268;20.944;2023-06-19T06:06:16;100343.17;;;36.51;40.00
44441;BME280;30146;52.268;20.944;2023-06-19T06:08:45;100342.98;;;36.88;40.09
44441;BME280;30146;52.268;20.944;2023-06-19T06:11:15;100344.75;;;37.26;39.62
44441;BME280;30146;52.268;20.944;2023-06-19T06:13:45;100343.44;;;37.59;38.68
44441;BME280;30146;52.268;20.944;2023-06-19T06:16:14;100343.79;;;37.78;37.28
44441;BME280;30146;52.268;20.944;2023-06-19T06:18:44;100346.30;;;37.93;36.68
44441;BME280;30146;52.268;20.944;2023-06-19T06:21:14;100348.97;;;38.08;36.38
44441;BME280;30146;52.268;20.944;2023-06-19T06:23:43;100350.15;;;38.26;36.14
44441;BME280;30146;52.268;20.944;2023-06-19T06:26:13;100357.79;;;38.41;35.88
44441;BME280;30146;52.268;20.944;2023-06-19T06:28:47;100355.45;;;38.45;35.24
44441;BME280;30146;52.268;20.944;2023-06-19T06:31:17;100356.44;;;38.37;34.84
44441;BME280;30146;52.268;20.944;2023-06-19T06:33:46;100361.22;;;38.15;34.30
44441;BME280;30146;52.268;20.944;2023-06-19T06:36:16;100360.52;;;37.84;34.71
44441;BME280;30146;52.268;20.944;2023-06-19T06:39:02;100362.30;;;37.49;34.83
44441;BME280;30146;52.268;20.944;2023-06-19T06:41:32;100358.76;;;37.14;34.71
44441;BME280;30146;52.268;20.944;2023-06-19T06:44:05;100361.47;;;36.75;34.68
44441;BME280;30146;52.268;20.944;2023-06-19T06:46:35;100362.36;;;36.35;34.49
44441;BME280;30146;52.268;20.944;2023-06-19T06:49:05;100361.83;;;35.89;34.23
44441;BME280;30146;52.268;20.944;2023-06-19T06:51:35;100363.23;;;35.49;34.61
44441;BME280;30146;52.268;20.944;2023-06-19T06:54:10;100364.11;;;35.26;35.37
44441;BME280;30146;52.268;20.944;2023-06-19T06:56:40;100363.94;;;35.08;35.65
44441;BME280;30146;52.268;20.944;2023-06-19T06:59:10;100363.84;;;34.93;35.38
44441;BME280;30146;52.268;20.944;2023-06-19T07:01:40;100361.09;;;34.70;34.70
44441;BME280;30146;52.268;20.944;2023-06-19T07:04:12;100358.45;;;34.44;35.10
44441;BME280;30146;52.268;20.944;2023-06-19T07:06:42;100357.25;;;34.29;35.37
44441;BME280;30146;52.268;20.944;2023-06-19T07:09:11;100351.86;;;34.15;35.28
44441;BME280;30146;52.268;20.944;2023-06-19T07:11:43;100348.23;;;34.00;35.59
44441;BME280;30146;52.268;20.944;2023-06-19T07:14:13;100345.98;;;33.89;35.85
44441;BME280;30146;52.268;20.944;2023-06-19T07:16:43;100344.15;;;33.75;35.22
44441;BME280;30146;52.268;20.944;2023-06-19T07:19:12;100344.70;;;33.50;35.20
44441;BME280;30146;52.268;20.944;2023-06-19T07:21:45;100343.08;;;33.33;35.51
44441;BME280;30146;52.268;20.944;2023-06-19T07:24:16;100342.65;;;33.10;35.45
44441;BME280;30146;52.268;20.944;2023-06-19T07:26:46;100348.52;;;33.00;36.10
44441;BME280;30146;52.268;20.944;2023-06-19T07:29:17;100347.28;;;32.96;36.52
44441;BME280;30146;52.268;20.944;2023-06-19T07:31:46;100349.98;;;32.96;36.41
44441;BME280;30146;52.268;20.944;2023-06-19T07:34:16;100346.41;;;32.93;36.32
44441;BME280;30146;52.268;20.944;2023-06-19T07:36:45;100344.45;;;32.86;36.17
44441;BME280;30146;52.268;20.944;2023-06-19T07:39:15;100345.13;;;32.73;35.81
44441;BME280;30146;52.268;20.944;2023-06-19T07:41:44;100341.88;;;32.61;36.29
44441;BME280;30146;52.268;20.944;2023-06-19T07:44:18;100341.33;;;32.61;36.76
44441;BME280;30146;52.268;20.944;2023-06-19T07:46:49;100341.84;;;32.67;37.13
44441;BME280;30146;52.268;20.944;2023-06-19T07:49:18;100341.59;;;32.74;37.12
44441;BME280;30146;52.268;20.944;2023-06-19T07:51:48;100345.31;;;32.77;36.59
44441;BME280;30146;52.268;20.944;2023-06-19T07:54:17;100347.54;;;32.65;36.20
44441;BME280;30146;52.268;20.944;2023-06-19T07:56:46;100346.83;;;32.57;36.45
44441;BME280;30146;52.268;20.944;2023-06-19T07:59:16;100348.02;;;32.51;36.25
44441;BME280;30146;52.268;20.944;2023-06-19T08:01:46;100348.30;;;32.45;36.01
44441;BME280;30146;52.268;20.944;2023-06-19T08:04:15;100349.09;;;32.39;36.26
44441;BME280;30146;52.268;20.944;2023-06-19T08:06:45;100351.05;;;32.30;36.06
44441;BME280;30146;52.268;20.944;2023-06-19T08:09:14;100351.25;;;32.19;36.17
44441;BME280;30146;52.268;20.944;2023-06-19T08:11:44;100350.88;;;32.09;35.58
44441;BME280;30146;52.268;20.944;2023-06-19T08:14:14;100348.20;;;31.94;35.71
44441;BME280;30146;52.268;20.944;2023-06-19T08:16:44;100350.10;;;31.85;35.80
44441;BME280;30146;52.268;20.944;2023-06-19T08:19:14;100346.33;;;31.76;35.78
44441;BME280;30146;52.268;20.944;2023-06-19T08:21:44;100347.45;;;31.72;36.47
44441;BME280;30146;52.268;20.944;2023-06-19T08:24:13;100345.45;;;31.76;36.77
44441;BME280;30146;52.268;20.944;2023-06-19T08:26:43;100342.69;;;31.84;36.92
44441;BME280;30146;52.268;20.944;2023-06-19T08:29:12;100341.90;;;31.94;37.02
44441;BME280;30146;52.268;20.944;2023-06-19T08:31:42;100347.31;;;32.03;36.45
44441;BME280;30146;52.268;20.944;2023-06-19T08:34:11;100345.83;;;32.08;36.04
44441;BME280;30146;52.268;20.944;2023-06-19T08:36:41;100348.88;;;32.08;36.06
44441;BME280;30146;52.268;20.944;2023-06-19T08:39:10;100345.87;;;32.08;36.03
44441;BME280;30146;52.268;20.944;2023-06-19T08:41:40;100344.40;;;32.12;35.97
44441;BME280;30146;52.268;20.944;2023-06-19T08:44:11;100347.17;;;32.16;36.18
44441;BME280;30146;52.268;20.944;2023-06-19T08:46:41;100350.70;;;32.21;35.85
44441;BME280;30146;52.268;20.944;2023-06-19T08:49:12;100351.60;;;32.23;35.67
44441;BME280;30146;52.268;20.944;2023-06-19T08:51:42;100350.25;;;32.22;35.17
44441;BME280;30146;52.268;20.944;2023-06-19T08:54:12;100348.73;;;32.07;34.33
44441;BME280;30146;52.268;20.944;2023-06-19T08:56:43;100348.77;;;31.89;34.47
44441;BME280;30146;52.268;20.944;2023-06-19T08:59:14;100350.54;;;31.78;34.57
44441;BME280;30146;52.268;20.944;2023-06-19T09:01:47;100349.52;;;31.69;34.66
44441;BME280;30146;52.268;20.944;2023-06-19T09:04:25;100349.70;;;31.65;35.23
44441;BME280;30146;52.268;20.944;2023-06-19T09:06:56;100351.68;;;31.66;35.08
44441;BME280;30146;52.268;20.944;2023-06-19T09:09:26;100349.45;;;31.65;34.83
44441;BME280;30146;52.268;20.944;2023-06-19T09:11:58;100349.08;;;31.64;34.71
44441;BME280;30146;52.268;20.944;2023-06-19T09:14:34;100346.98;;;31.62;34.45
44441;BME280;30146;52.268;20.944;2023-06-19T09:17:05;100347.61;;;31.63;35.01
44441;BME280;30146;52.268;20.944;2023-06-19T09:19:46;100346.59;;;31.66;34.87
44441;BME280;30146;52.268;20.944;2023-06-19T09:22:16;100344.80;;;31.72;34.80
44441;BME280;30146;52.268;20.944;2023-06-19T09:24:47;100337.36;;;31.77;34.66
44441;BME280;30146;52.268;20.944;2023-06-19T09:27:17;100339.59;;;31.78;34.38
44441;BME280;30146;52.268;20.944;2023-06-19T09:29:48;100341.05;;;31.78;34.35
44441;BME280;30146;52.268;20.944;2023-06-19T09:32:20;100343.60;;;31.72;34.19
44441;BME280;30146;52.268;20.944;2023-06-19T09:34:51;100347.97;;;31.70;34.50
44441;BME280;30146;52.268;20.944;2023-06-19T09:37:21;100347.75;;;31.72;34.62
44441;BME280;30146;52.268;20.944;2023-06-19T09:39:52;100342.64;;;31.71;34.17
44441;BME280;30146;52.268;20.944;2023-06-19T09:42:26;100343.88;;;31.65;34.21
44441;BME280;30146;52.268;20.944;2023-06-19T09:44:58;100341.32;;;31.64;34.08
44441;BME280;30146;52.268;20.944;2023-06-19T09:47:29;100339.87;;;31.57;33.61
44441;BME280;30146;52.268;20.944;2023-06-19T09:49:59;100342.65;;;31.43;33.27
44441;BME280;30146;52.268;20.944;2023-06-19T09:52:30;100339.39;;;31.33;33.74
44441;BME280;30146;52.268;20.944;2023-06-19T09:55:03;100338.86;;;31.29;33.67
44441;BME280;30146;52.268;20.944;2023-06-19T09:57:33;100341.94;;;31.25;34.36
44441;BME280;30146;52.268;20.944;2023-06-19T10:00:05;100338.31;;;31.27;34.51
44441;BME280;30146;52.268;20.944;2023-06-19T10:02:40;100338.91;;;31.31;34.14
44441;BME280;30146;52.268;20.944;2023-06-19T10:05:10;100338.20;;;31.33;34.11
44441;BME280;30146;52.268;20.944;2023-06-19T10:07:44;100335.44;;;31.36;34.05
44441;BME280;30146;52.268;20.944;2023-06-19T10:10:22;100333.88;;;31.35;33.96
44441;BME280;30146;52.268;20.944;2023-06-19T10:12:53;100332.77;;;31.23;33.48
44441;BME280;30146;52.268;20.944;2023-06-19T10:15:24;100331.42;;;31.00;33.28
44441;BME280;30146;52.268;20.944;2023-06-19T10:18:01;100330.16;;;30.78;33.13
44441;BME280;30146;52.268;20.944;2023-06-19T10:20:32;100328.80;;;30.66;33.62
44441;BME280;30146;52.268;20.944;2023-06-19T10:23:04;100331.70;;;30.60;33.80
44441;BME280;30146;52.268;20.944;2023-06-19T10:25:35;100326.95;;;30.54;33.70
44441;BME280;30146;52.268;20.944;2023-06-19T10:28:15;100327.11;;;30.50;34.15
44441;BME280;30146;52.268;20.944;2023-06-19T10:30:45;100328.02;;;30.50;34.24
44441;BME280;30146;52.268;20.944;2023-06-19T10:33:21;100325.11;;;30.51;34.60
44441;BME280;30146;52.268;20.944;2023-06-19T10:35:51;100326.02;;;30.50;34.08
44441;BME280;30146;52.268;20.944;2023-06-19T10:38:21;100321.38;;;30.40;34.17
44441;BME280;30146;52.268;20.944;2023-06-19T10:40:50;100315.61;;;30.31;34.20
44441;BME280;30146;52.268;20.944;2023-06-19T10:43:21;100316.82;;;30.24;34.07
44441;BME280;30146;52.268;20.944;2023-06-19T10:45:53;100315.00;;;30.17;34.27
44441;BME280;30146;52.268;20.944;2023-06-19T10:48:23;100316.08;;;30.17;34.92
44441;BME280;30146;52.268;20.944;2023-06-19T10:50:55;100317.06;;;30.18;34.73
44441;BME280;30146;52.268;20.944;2023-06-19T10:53:26;100314.09;;;30.18;34.62
44441;BME280;30146;52.268;20.944;2023-06-19T10:55:56;100313.83;;;30.18;34.78
44441;BME280;30146;52.268;20.944;2023-06-19T10:58:27;100313.96;;;30.17;34.43
44441;BME280;30146;52.268;20.944;2023-06-19T11:00:57;100310.86;;;30.06;34.03
44441;BME280;30146;52.268;20.944;2023-06-19T11:03:26;100307.91;;;29.89;33.87
44441;BME280;30146;52.268;20.944;2023-06-19T11:05:57;100308.16;;;29.76;34.03
44441;BME280;30146;52.268;20.944;2023-06-19T11:08:27;100308.79;;;29.59;33.88
44441;BME280;30146;52.268;20.944;2023-06-19T11:10:57;100307.05;;;29.41;33.84
44441;BME280;30146;52.268;20.944;2023-06-19T11:13:26;100303.77;;;29.26;34.16
44441;BME280;30146;52.268;20.944;2023-06-19T11:15:56;100301.84;;;29.17;34.40
44441;BME280;30146;52.268;20.944;2023-06-19T11:18:27;100301.70;;;29.12;34.64
44441;BME280;30146;52.268;20.944;2023-06-19T11:20:56;100300.73;;;29.13;35.31
44441;BME280;30146;52.268;20.944;2023-06-19T11:23:29;100298.56;;;29.12;34.74
44441;BME280;30146;52.268;20.944;2023-06-19T11:26:03;100295.17;;;29.10;34.91
44441;BME280;30146;52.268;20.944;2023-06-19T11:28:32;100297.75;;;29.07;34.52
44441;BME280;30146;52.268;20.944;2023-06-19T11:31:03;100289.99;;;28.95;34.33
44441;BME280;30146;52.268;20.944;2023-06-19T11:33:32;100290.98;;;28.86;34.46
44441;BME280;30146;52.268;20.944;2023-06-19T11:36:02;100287.35;;;28.75;34.25
44441;BME280;30146;52.268;20.944;2023-06-19T11:38:32;100283.90;;;28.62;34.48
44441;BME280;30146;52.268;20.944;2023-06-19T11:41:09;100288.33;;;28.53;34.77
44441;BME280;30146;52.268;20.944;2023-06-19T11:43:40;100288.46;;;28.47;35.04
44441;BME280;30146;52.268;20.944;2023-06-19T11:46:10;100291.78;;;28.45;35.25
44441;BME280;30146;52.268;20.944;2023-06-19T11:48:40;100280.30;;;28.48;35.44
44441;BME280;30146;52.268;20.944;2023-06-19T11:51:20;100286.45;;;28.48;35.77
44441;BME280;30146;52.268;20.944;2023-06-19T11:53:49;100286.95;;;28.46;35.67
44441;BME280;30146;52.268;20.944;2023-06-19T11:56:20;100286.89;;;28.45;36.00
44441;BME280;30146;52.268;20.944;2023-06-19T11:58:49;100283.77;;;28.42;36.10
44441;BME280;30146;52.268;20.944;2023-06-19T12:01:19;100281.88;;;28.40;36.54
44441;BME280;30146;52.268;20.944;2023-06-19T12:03:48;100278.13;;;28.34;36.14
44441;BME280;30146;52.268;20.944;2023-06-19T12:06:18;100279.30;;;28.27;36.29
44441;BME280;30146;52.268;20.944;2023-06-19T12:08:48;100282.70;;;28.17;36.31
44441;BME280;30146;52.268;20.944;2023-06-19T12:11:17;100282.02;;;28.09;36.31
44441;BME280;30146;52.268;20.944;2023-06-19T12:13:47;100283.66;;;27.98;36.44
44441;BME280;30146;52.268;20.944;2023-06-19T12:16:16;100285.59;;;27.89;36.73
44441;BME280;30146;52.268;20.944;2023-06-19T12:18:46;100286.46;;;27.80;36.74
44441;BME280;30146;52.268;20.944;2023-06-19T12:21:15;100282.46;;;27.72;36.87
44441;BME280;30146;52.268;20.944;2023-06-19T12:24:03;100282.52;;;27.62;36.89
44441;BME280;30146;52.268;20.944;2023-06-19T12:26:34;100281.92;;;27.55;37.45
44441;BME280;30146;52.268;20.944;2023-06-19T12:29:05;100286.02;;;27.50;37.52
44441;BME280;30146;52.268;20.944;2023-06-19T12:31:35;100280.73;;;27.43;37.26
44441;BME280;30146;52.268;20.944;2023-06-19T12:34:05;100282.14;;;27.37;37.50
44441;BME280;30146;52.268;20.944;2023-06-19T12:36:54;100279.52;;;27.30;37.85
44441;BME280;30146;52.268;20.944;2023-06-19T12:39:25;100276.94;;;27.25;38.13
44441;BME280;30146;52.268;20.944;2023-06-19T12:41:55;100277.33;;;27.20;38.12
44441;BME280;30146;52.268;20.944;2023-06-19T12:44:24;100277.24;;;27.15;37.97
44441;BME280;30146;52.268;20.944;2023-06-19T12:46:54;100277.39;;;27.10;38.07
44441;BME280;30146;52.268;20.944;2023-06-19T12:49:27;100274.43;;;27.07;38.37
44441;BME280;30146;52.268;20.944;2023-06-19T12:51:57;100270.20;;;27.11;38.30
44441;BME280;30146;52.268;20.944;2023-06-19T12:54:27;100263.65;;;27.13;38.21
44441;BME280;30146;52.268;20.944;2023-06-19T12:56:57;100262.55;;;27.14;38.25